Eferding, Austria
Current Conditions -  °F | °C
As of 7:20 PM on Thursday 27 Nov 2014 (Local Time) from LOWL Reporting Station
Clear Clear  
Wind Chill: 30°   Ceiling: Unl
Heat Index: 36°   Visibility: 6mi
Dew Point: 30°   Wind: 7mph
Humidity: 81%   Direction: 100°E
Pressure: 29.88"   Gusts: NA
Location:  48.31°N, 14.02°E
Report Text: LOWL 271720Z 10006KT CAVOK 02/M01 Q1012 NOSIG
Loading
Personal Weather Stations






























Interactive Weather Map New forecast layout! Learn more

10-Day Weather Forecast

Advertisements
Track Severe Weather on mobile